createdAt,value
2023-04-03T00:00:36.046Z,98585.97
2023-04-03T00:02:09.640Z,98576.63
2023-04-03T00:03:43.561Z,98579.56
2023-04-03T00:05:17.254Z,98578.84
2023-04-03T00:06:50.486Z,98585.03
2023-04-03T00:08:25.001Z,98579.75
2023-04-03T00:09:58.529Z,98586.84
2023-04-03T00:11:31.817Z,98581.72
2023-04-03T00:13:04.589Z,98581.81
2023-04-03T00:14:37.924Z,98583.50
2023-04-03T00:16:12.678Z,98580.06
2023-04-03T00:17:46.861Z,98578.78
2023-04-03T00:19:20.573Z,98588.00
2023-04-03T00:20:53.955Z,98584.78
2023-04-03T00:22:27.870Z,98575.88
2023-04-03T00:24:02.522Z,98582.75
2023-04-03T00:25:34.731Z,98566.69
2023-04-03T00:27:07.901Z,98567.47
2023-04-03T00:28:41.279Z,98571.38
2023-04-03T00:30:17.648Z,98570.31
2023-04-03T00:31:51.047Z,98570.22
2023-04-03T00:33:25.681Z,98569.53
2023-04-03T00:34:59.112Z,98557.44
2023-04-03T00:36:32.909Z,98572.38
2023-04-03T00:38:05.618Z,98562.81
2023-04-03T00:39:40.481Z,98564.97
2023-04-03T00:41:13.664Z,98559.22
2023-04-03T00:42:48.491Z,98560.25
2023-04-03T00:44:23.693Z,98563.25
2023-04-03T00:45:59.102Z,98557.91
2023-04-03T00:47:33.491Z,98562.06
2023-04-03T00:49:08.467Z,98560.63
2023-04-03T00:50:42.711Z,98573.13
2023-04-03T00:52:19.795Z,98567.97
2023-04-03T00:53:57.625Z,98562.69
2023-04-03T00:55:32.890Z,98574.66
2023-04-03T00:57:08.585Z,98573.44
2023-04-03T00:58:45.587Z,98572.41
2023-04-03T01:00:24.114Z,98577.63
2023-04-03T01:01:58.422Z,98575.22
2023-04-03T01:03:32.616Z,98571.00
2023-04-03T01:05:07.764Z,98574.56
2023-04-03T01:06:41.058Z,98570.06
2023-04-03T01:08:15.408Z,98575.22
2023-04-03T01:09:49.481Z,98575.97
2023-04-03T01:11:24.911Z,98571.41
2023-04-03T01:12:58.707Z,98584.88
2023-04-03T01:14:32.053Z,98564.34
2023-04-03T01:16:06.536Z,98580.13
2023-04-03T01:17:40.871Z,98564.91
2023-04-03T01:19:19.330Z,98577.81
2023-04-03T01:21:13.579Z,98578.56
2023-04-03T01:22:54.785Z,98581.06
2023-04-03T01:24:35.244Z,98571.22
2023-04-03T01:26:12.769Z,98570.34
2023-04-03T01:27:47.441Z,98572.97
2023-04-03T01:29:21.322Z,98565.34
2023-04-03T01:31:02.800Z,98566.34
2023-04-03T01:32:39.762Z,98568.22
2023-04-03T01:34:12.369Z,98571.69
2023-04-03T01:35:45.660Z,98581.31
2023-04-03T01:37:19.646Z,98572.75
2023-04-03T01:38:53.497Z,98576.75
2023-04-03T01:40:26.632Z,98592.06
2023-04-03T01:42:01.390Z,98591.44
2023-04-03T01:43:42.805Z,98596.88
2023-04-03T01:45:16.403Z,98591.72
2023-04-03T01:46:49.626Z,98588.09
2023-04-03T01:48:24.386Z,98588.78
2023-04-03T01:49:57.692Z,98585.19
2023-04-03T01:51:31.288Z,98587.59
2023-04-03T01:53:03.557Z,98585.13
2023-04-03T01:54:36.755Z,98599.03
2023-04-03T01:56:09.209Z,98605.19
2023-04-03T01:57:42.910Z,98607.72
2023-04-03T01:59:18.158Z,98602.31
2023-04-03T02:00:51.823Z,98606.56
2023-04-03T02:02:26.328Z,98594.16
2023-04-03T02:04:01.286Z,98603.66
2023-04-03T02:05:34.974Z,98600.84
2023-04-03T02:07:08.447Z,98597.28
2023-04-03T02:08:41.442Z,98605.09
2023-04-03T02:10:15.959Z,98598.16
2023-04-03T02:11:49.135Z,98601.78
2023-04-03T02:13:21.576Z,98603.66
2023-04-03T02:14:55.096Z,98607.56
2023-04-03T02:16:29.873Z,98612.88
2023-04-03T02:18:02.094Z,98609.25
2023-04-03T02:19:42.438Z,98618.88
2023-04-03T02:21:15.738Z,98607.72
2023-04-03T02:22:49.565Z,98614.97
2023-04-03T02:24:22.824Z,98610.63
2023-04-03T02:26:04.174Z,98600.16
2023-04-03T02:27:37.484Z,98593.13
2023-04-03T02:29:11.106Z,98597.56
2023-04-03T02:30:44.356Z,98596.63
2023-04-03T02:32:17.928Z,98602.75
2023-04-03T02:33:51.218Z,98596.59
2023-04-03T02:35:26.903Z,98597.41
2023-04-03T02:37:02.524Z,98602.56
2023-04-03T02:38:36.327Z,98606.19
2023-04-03T02:40:10.639Z,98598.72
2023-04-03T02:41:44.322Z,98599.78
2023-04-03T02:43:23.417Z,98603.03
2023-04-03T02:44:58.166Z,98591.72
2023-04-03T02:46:32.050Z,98600.47
2023-04-03T02:48:06.093Z,98605.97
2023-04-03T02:49:38.411Z,98605.16
2023-04-03T02:51:13.027Z,98613.19
2023-04-03T02:52:48.960Z,98606.41
2023-04-03T02:54:24.287Z,98607.34
2023-04-03T02:56:00.669Z,98602.25
2023-04-03T02:57:33.976Z,98615.38
2023-04-03T02:59:08.017Z,98602.34
2023-04-03T03:00:44.474Z,98614.72
2023-04-03T03:02:21.009Z,98608.50
2023-04-03T03:03:54.210Z,98608.53
2023-04-03T03:05:28.637Z,98617.28
2023-04-03T03:07:03.618Z,98613.75
2023-04-03T03:08:37.095Z,98612.75
2023-04-03T03:10:11.558Z,98607.44
2023-04-03T03:11:45.235Z,98605.53
2023-04-03T03:13:18.530Z,98603.69
2023-04-03T03:14:51.691Z,98607.91
2023-04-03T03:16:25.269Z,98605.22
2023-04-03T03:17:59.080Z,98611.34
2023-04-03T03:19:33.658Z,98603.47
2023-04-03T03:21:06.095Z,98593.91
2023-04-03T03:22:47.150Z,98594.63
2023-04-03T03:24:23.857Z,98594.81
2023-04-03T03:25:58.626Z,98601.91
2023-04-03T03:27:31.897Z,98589.00
2023-04-03T03:29:05.556Z,98583.00
2023-04-03T03:30:41.438Z,98591.75
2023-04-03T03:32:16.035Z,98590.25
2023-04-03T03:33:49.750Z,98582.69
2023-04-03T03:35:23.174Z,98589.25
2023-04-03T03:36:56.431Z,98585.16
2023-04-03T03:38:31.664Z,98586.44
2023-04-03T03:40:07.198Z,98595.00
2023-04-03T03:41:41.604Z,98584.34
2023-04-03T03:43:16.764Z,98587.75
2023-04-03T03:44:50.105Z,98597.25
2023-04-03T03:46:23.688Z,98599.78
2023-04-03T03:47:56.552Z,98591.91
2023-04-03T03:49:30.796Z,98596.25
2023-04-03T03:51:04.225Z,98598.88
2023-04-03T03:52:41.719Z,98603.91
2023-04-03T03:54:16.803Z,98606.41
2023-04-03T03:55:50.763Z,98585.75
2023-04-03T03:57:27.988Z,98604.72
2023-04-03T03:59:01.478Z,98594.47
2023-04-03T04:00:34.039Z,98602.53
2023-04-03T04:02:07.894Z,98599.94
2023-04-03T04:03:41.483Z,98599.91
2023-04-03T04:05:16.747Z,98605.88
2023-04-03T04:06:50.169Z,98608.41
2023-04-03T04:08:24.131Z,98609.31
2023-04-03T04:09:59.060Z,98596.41
2023-04-03T04:11:33.565Z,98603.31
2023-04-03T04:13:07.491Z,98608.44
2023-04-03T04:14:41.464Z,98613.78
2023-04-03T04:16:16.266Z,98605.03
2023-04-03T04:17:50.332Z,98598.78
2023-04-03T04:19:23.822Z,98603.00
2023-04-03T04:20:57.222Z,98603.72
2023-04-03T04:22:30.742Z,98593.97
2023-04-03T04:24:04.390Z,98605.03
2023-04-03T04:25:39.318Z,98606.81
2023-04-03T04:27:13.536Z,98614.63
2023-04-03T04:28:47.078Z,98604.97
2023-04-03T04:30:19.705Z,98607.34
2023-04-03T04:31:55.367Z,98615.06
2023-04-03T04:33:29.805Z,98615.78
2023-04-03T04:35:06.832Z,98612.16
2023-04-03T04:36:42.573Z,98614.59
2023-04-03T04:38:15.957Z,98616.47
2023-04-03T04:39:49.310Z,98622.59
2023-04-03T04:41:24.380Z,98632.97
2023-04-03T04:42:58.465Z,98629.38
2023-04-03T04:44:31.751Z,98632.69
2023-04-03T04:46:07.166Z,98636.06
2023-04-03T04:47:44.902Z,98634.28
2023-04-03T04:49:18.256Z,98636.50
2023-04-03T04:50:51.760Z,98636.22
2023-04-03T04:52:25.203Z,98643.00
2023-04-03T04:53:58.453Z,98652.50
2023-04-03T04:55:32.128Z,98644.44
2023-04-03T04:57:06.960Z,98645.75
2023-04-03T04:58:41.164Z,98651.25
2023-04-03T05:00:16.429Z,98650.06
2023-04-03T05:01:50.080Z,98659.09
2023-04-03T05:03:23.907Z,98645.56
2023-04-03T05:04:57.501Z,98666.78
2023-04-03T05:06:36.320Z,98662.75
2023-04-03T05:08:13.688Z,98664.91
2023-04-03T05:09:48.725Z,98667.06
2023-04-03T05:11:22.856Z,98668.09
2023-04-03T05:13:00.613Z,98664.38
2023-04-03T05:14:33.929Z,98665.97
2023-04-03T05:16:10.907Z,98676.13
2023-04-03T05:17:44.407Z,98674.56
2023-04-03T05:19:20.100Z,98659.25
2023-04-03T05:20:53.375Z,98668.94
2023-04-03T05:22:27.288Z,98659.78
2023-04-03T05:24:04.700Z,98664.34
2023-04-03T05:25:40.294Z,98663.47
2023-04-03T05:27:13.793Z,98660.13
2023-04-03T05:28:52.103Z,98660.03
2023-04-03T05:30:26.841Z,98655.00
2023-04-03T05:32:00.124Z,98660.91
2023-04-03T05:33:34.410Z,98655.13
2023-04-03T05:35:08.952Z,98654.63
2023-04-03T05:36:43.375Z,98661.31
2023-04-03T05:38:17.692Z,98668.31
2023-04-03T05:39:51.396Z,98663.22
2023-04-03T05:41:25.172Z,98653.81
2023-04-03T05:42:58.956Z,98674.13
2023-04-03T05:44:37.136Z,98652.75
2023-04-03T05:46:13.379Z,98662.56
2023-04-03T05:47:48.491Z,98651.75
2023-04-03T05:49:22.100Z,98668.25
2023-04-03T05:50:57.164Z,98677.13
2023-04-03T05:52:36.678Z,98682.75
2023-04-03T05:54:15.820Z,98680.88
2023-04-03T05:55:49.962Z,98682.44
2023-04-03T05:57:23.776Z,98676.97
2023-04-03T05:58:57.491Z,98678.69
2023-04-03T06:00:32.257Z,98681.19
2023-04-03T06:02:09.214Z,98674.72
2023-04-03T06:03:43.286Z,98670.44
2023-04-03T06:05:17.097Z,98670.22
2023-04-03T06:06:53.350Z,98670.22
2023-04-03T06:08:27.062Z,98662.78
2023-04-03T06:10:00.446Z,98659.38
2023-04-03T06:11:33.652Z,98663.03
2023-04-03T06:13:07.141Z,98676.00
2023-04-03T06:14:40.671Z,98671.56
2023-04-03T06:16:17.285Z,98669.44
2023-04-03T06:17:50.586Z,98671.72
2023-04-03T06:19:25.059Z,98672.28
2023-04-03T06:21:04.174Z,98666.84
2023-04-03T06:22:37.421Z,98664.50
2023-04-03T06:24:16.762Z,98672.06
2023-04-03T06:25:50.224Z,98674.38
2023-04-03T06:27:23.590Z,98662.31
2023-04-03T06:28:57.147Z,98664.59
2023-04-03T06:30:30.290Z,98673.28
2023-04-03T06:32:05.115Z,98673.28
2023-04-03T06:33:38.415Z,98672.19
2023-04-03T06:35:11.922Z,98670.13
2023-04-03T06:36:46.087Z,98672.63
2023-04-03T06:38:20.184Z,98665.91
2023-04-03T06:39:54.028Z,98669.25
2023-04-03T06:41:27.782Z,98664.94
2023-04-03T06:43:00.955Z,98662.31
2023-04-03T06:44:35.535Z,98669.53
2023-04-03T06:46:09.355Z,98665.56
2023-04-03T06:47:44.004Z,98660.31
2023-04-03T06:49:17.425Z,98657.50
2023-04-03T06:50:50.733Z,98663.75
2023-04-03T06:52:24.213Z,98664.63
2023-04-03T06:54:00.745Z,98656.41
2023-04-03T06:55:33.947Z,98666.97
2023-04-03T06:57:07.208Z,98668.31
2023-04-03T06:58:40.792Z,98666.50
2023-04-03T07:00:15.864Z,98656.25
2023-04-03T07:01:50.057Z,98639.03
2023-04-03T07:03:24.815Z,98661.56
2023-04-03T07:04:58.624Z,98667.25
2023-04-03T07:06:32.888Z,98669.44
2023-04-03T07:08:06.695Z,98664.59
2023-04-03T07:09:39.867Z,98679.63
2023-04-03T07:11:15.210Z,98682.31
2023-04-03T07:12:48.530Z,98683.72
2023-04-03T07:14:22.210Z,98686.06
2023-04-03T07:15:55.552Z,98688.34
2023-04-03T07:17:29.293Z,98684.44
2023-04-03T07:19:04.008Z,98684.63
2023-04-03T07:20:37.382Z,98680.47
2023-04-03T07:22:12.107Z,98669.81
2023-04-03T07:23:45.973Z,98670.94
2023-04-03T07:25:19.263Z,98671.03
2023-04-03T07:26:53.114Z,98660.25
2023-04-03T07:28:26.986Z,98672.41
2023-04-03T07:30:00.579Z,98662.59
2023-04-03T07:31:34.926Z,98669.00
2023-04-03T07:33:08.268Z,98669.25
2023-04-03T07:34:43.114Z,98670.00
2023-04-03T07:36:19.252Z,98681.09
2023-04-03T07:37:52.477Z,98674.97
2023-04-03T07:39:25.878Z,98674.69
2023-04-03T07:40:59.175Z,98667.66
2023-04-03T07:42:32.795Z,98664.78
2023-04-03T07:44:06.824Z,98668.78
2023-04-03T07:45:40.618Z,98672.00
2023-04-03T07:47:15.337Z,98669.63
2023-04-03T07:48:48.782Z,98670.44
2023-04-03T07:50:23.515Z,98671.84
2023-04-03T07:51:56.718Z,98663.63
2023-04-03T07:53:29.955Z,98660.19
2023-04-03T07:55:03.418Z,98659.75
2023-04-03T07:56:36.654Z,98660.09
2023-04-03T07:58:09.850Z,98664.19
2023-04-03T07:59:43.769Z,98654.91
2023-04-03T08:01:17.488Z,98655.94
2023-04-03T08:02:52.598Z,98655.75
2023-04-03T08:04:27.289Z,98655.00
2023-04-03T08:06:09.204Z,98661.69
2023-04-03T08:07:45.758Z,98650.34
2023-04-03T08:09:19.726Z,98658.88
2023-04-03T08:10:54.254Z,98652.19
2023-04-03T08:12:29.594Z,98653.53
2023-04-03T08:14:03.725Z,98648.03
2023-04-03T08:15:38.028Z,98643.78
2023-04-03T08:17:12.813Z,98638.06
2023-04-03T08:18:46.475Z,98637.44
2023-04-03T08:20:20.066Z,98632.59
2023-04-03T08:21:54.730Z,98620.19
2023-04-03T08:23:28.119Z,98619.69
2023-04-03T08:25:02.593Z,98613.34
2023-04-03T08:26:36.281Z,98610.31
2023-04-03T08:28:09.519Z,98619.22
2023-04-03T08:29:42.703Z,98610.66
2023-04-03T08:31:19.518Z,98614.84
2023-04-03T08:32:53.223Z,98619.44
2023-04-03T08:34:26.411Z,98610.94
2023-04-03T08:35:59.656Z,98608.38
2023-04-03T08:37:37.348Z,98604.34
2023-04-03T08:39:10.841Z,98600.09
2023-04-03T08:40:44.235Z,98597.78
2023-04-03T08:42:24.891Z,98599.97
2023-04-03T08:44:05.646Z,98593.25
2023-04-03T08:45:46.465Z,98591.91
2023-04-03T08:47:27.239Z,98598.25
2023-04-03T08:49:01.433Z,98603.72
2023-04-03T08:50:40.186Z,98600.91
2023-04-03T08:52:16.917Z,98598.94
2023-04-03T08:54:00.576Z,98602.94
2023-04-03T08:55:37.412Z,98599.41
2023-04-03T08:57:14.634Z,98598.16
2023-04-03T08:58:51.478Z,98594.78
2023-04-03T09:00:26.721Z,98586.19
2023-04-03T09:02:05.716Z,98591.84
2023-04-03T09:03:42.279Z,98590.00
2023-04-03T09:05:18.079Z,98592.34
2023-04-03T09:06:56.639Z,98592.03
2023-04-03T09:08:32.508Z,98580.97
2023-04-03T09:10:08.132Z,98577.00
2023-04-03T09:11:51.532Z,98575.88
2023-04-03T09:13:32.782Z,98580.09
2023-04-03T09:15:20.061Z,98585.84
2023-04-03T09:17:01.369Z,98579.09
2023-04-03T09:18:40.902Z,98578.56
2023-04-03T09:20:24.921Z,98575.19
2023-04-03T09:22:00.349Z,98569.31
2023-04-03T09:23:40.815Z,98583.56
2023-04-03T09:25:19.191Z,98575.91
2023-04-03T09:27:00.197Z,98570.50
2023-04-03T09:28:43.052Z,98572.81
2023-04-03T09:30:24.590Z,98568.97
2023-04-03T09:32:01.848Z,98572.25
2023-04-03T09:33:38.022Z,98565.28
2023-04-03T09:35:27.313Z,98557.22
2023-04-03T09:37:10.044Z,98560.09
2023-04-03T09:38:43.349Z,98557.25
2023-04-03T09:40:40.400Z,98553.00
2023-04-03T09:42:21.626Z,98558.63
2023-04-03T09:43:56.899Z,98556.34
2023-04-03T09:45:32.800Z,98550.06
2023-04-03T09:47:21.699Z,98552.69
2023-04-03T09:49:08.160Z,98544.81
2023-04-03T09:51:00.222Z,98546.84
2023-04-03T09:52:34.539Z,98550.53
2023-04-03T09:54:38.785Z,98553.66
2023-04-03T09:56:24.316Z,98545.72
2023-04-03T09:58:00.245Z,98542.28
2023-04-03T09:59:34.630Z,98541.59
2023-04-03T10:01:08.137Z,98554.09
2023-04-03T10:02:44.123Z,98548.09
2023-04-03T10:04:18.982Z,98542.75
2023-04-03T10:05:55.530Z,98551.28
2023-04-03T10:07:31.834Z,98554.38
2023-04-03T10:09:07.535Z,98547.75
2023-04-03T10:10:41.453Z,98549.47
2023-04-03T10:12:22.436Z,98541.34
2023-04-03T10:14:00.798Z,98535.16
2023-04-03T10:15:42.351Z,98532.19
2023-04-03T10:17:25.613Z,98528.81
2023-04-03T10:19:33.613Z,98534.63
2023-04-03T10:21:24.667Z,98520.19
2023-04-03T10:23:14.549Z,98518.25
2023-04-03T10:24:58.871Z,98514.75
2023-04-03T10:26:39.775Z,98508.69
2023-04-03T10:28:22.380Z,98511.44
2023-04-03T10:30:02.246Z,98500.44
2023-04-03T10:31:42.659Z,98500.25
2023-04-03T10:33:42.301Z,98507.69
2023-04-03T10:35:27.307Z,98497.50
2023-04-03T10:37:08.586Z,98500.69
2023-04-03T10:38:49.351Z,98499.00
2023-04-03T10:40:34.021Z,98487.16
2023-04-03T10:42:17.674Z,98490.84
2023-04-03T10:44:05.607Z,98482.06
2023-04-03T10:45:53.758Z,98492.81
2023-04-03T10:47:36.040Z,98483.47
2023-04-03T10:49:23.867Z,98481.53
2023-04-03T10:51:08.972Z,98474.16
2023-04-03T10:52:50.012Z,98481.63
2023-04-03T10:54:28.323Z,98473.59
2023-04-03T10:56:07.789Z,98480.97
2023-04-03T10:57:42.801Z,98481.53
2023-04-03T10:59:25.201Z,98469.94
2023-04-03T11:01:05.115Z,98469.91
2023-04-03T11:02:41.862Z,98469.63
2023-04-03T11:04:17.464Z,98466.47
2023-04-03T11:05:54.789Z,98466.66
2023-04-03T11:07:32.760Z,98460.44
2023-04-03T11:09:10.159Z,98458.63
2023-04-03T11:10:47.282Z,98453.69
2023-04-03T11:12:27.215Z,98453.66
2023-04-03T11:14:05.349Z,98460.56
2023-04-03T11:15:40.260Z,98447.00
2023-04-03T11:17:24.345Z,98439.34
2023-04-03T11:19:02.428Z,98425.88
2023-04-03T11:20:38.899Z,98437.16
2023-04-03T11:22:18.417Z,98433.56
2023-04-03T11:23:53.584Z,98432.25
2023-04-03T11:25:28.037Z,98441.13
2023-04-03T11:27:04.903Z,98439.56
2023-04-03T11:28:39.094Z,98439.84
2023-04-03T11:30:20.309Z,98436.19
2023-04-03T11:32:21.652Z,98434.19
2023-04-03T11:34:07.398Z,98441.72
2023-04-03T11:35:46.396Z,98445.50
2023-04-03T11:37:27.326Z,98439.13
2023-04-03T11:39:03.919Z,98428.00
2023-04-03T11:40:41.611Z,98432.50
2023-04-03T11:42:27.437Z,98438.31
2023-04-03T11:44:03.474Z,98441.47
2023-04-03T11:45:54.711Z,98434.22
2023-04-03T11:47:49.765Z,98437.91
2023-04-03T11:50:08.911Z,98445.75
2023-04-03T11:51:45.833Z,98434.44
2023-04-03T11:53:36.932Z,98432.25
2023-04-03T11:55:44.696Z,98433.22
2023-04-03T11:57:49.038Z,98434.94
2023-04-03T11:59:26.939Z,98442.50
2023-04-03T12:01:06.257Z,98432.41
2023-04-03T12:04:19.202Z,98439.50
2023-04-03T12:05:53.952Z,98435.47
2023-04-03T12:07:27.293Z,98437.66
2023-04-03T12:08:59.558Z,98440.56
2023-04-03T12:10:33.027Z,98448.34
2023-04-03T12:12:30.009Z,98438.03
2023-04-03T12:14:16.596Z,98449.00
2023-04-03T12:16:00.985Z,98449.97
2023-04-03T12:17:35.663Z,98441.44
2023-04-03T12:19:44.614Z,98448.34
2023-04-03T12:21:19.658Z,98449.25
2023-04-03T12:23:25.537Z,98443.91
2023-04-03T12:24:59.109Z,98445.38
2023-04-03T12:26:47.678Z,98439.53
2023-04-03T12:28:23.055Z,98438.31
2023-04-03T12:30:06.812Z,98431.28
2023-04-03T12:31:48.754Z,98433.66
2023-04-03T12:33:31.692Z,98446.44
2023-04-03T12:35:17.160Z,98443.38
2023-04-03T12:37:03.114Z,98443.38
2023-04-03T12:39:04.380Z,98448.25
2023-04-03T12:40:46.075Z,98451.41
2023-04-03T12:42:46.902Z,98464.50
2023-04-03T12:44:45.420Z,98456.16
2023-04-03T12:46:22.304Z,98467.91
2023-04-03T12:47:57.217Z,98480.38
2023-04-03T12:49:39.434Z,98484.84
2023-04-03T12:51:16.924Z,98484.81
2023-04-03T12:52:58.962Z,98493.00
2023-04-03T12:54:37.475Z,98480.41
2023-04-03T12:56:26.142Z,98482.44
2023-04-03T12:58:00.446Z,98472.34
2023-04-03T12:59:33.831Z,98473.28
2023-04-03T13:01:13.193Z,98476.56
2023-04-03T13:02:47.513Z,98477.13
2023-04-03T13:04:21.962Z,98478.47
2023-04-03T13:05:57.941Z,98488.56
2023-04-03T13:07:34.728Z,98481.94
2023-04-03T13:09:23.418Z,98485.75
2023-04-03T13:11:03.850Z,98489.72
2023-04-03T13:12:37.532Z,98482.16
2023-04-03T13:14:18.418Z,98477.50
2023-04-03T13:15:54.205Z,98478.53
2023-04-03T13:17:29.002Z,98468.75
2023-04-03T13:19:02.363Z,98470.84
2023-04-03T13:20:39.279Z,98468.47
2023-04-03T13:22:26.630Z,98455.00
2023-04-03T13:25:45.164Z,98465.50
2023-04-03T13:27:19.125Z,98469.56
2023-04-03T13:28:53.937Z,98451.78
2023-04-03T13:30:31.903Z,98454.69
2023-04-03T13:32:07.275Z,98451.50
2023-04-03T13:33:56.519Z,98451.38
2023-04-03T13:35:39.295Z,98449.16
2023-04-03T13:37:23.946Z,98434.44
2023-04-03T13:39:02.967Z,98442.22
2023-04-03T13:40:49.097Z,98439.47
2023-04-03T13:42:27.662Z,98428.84
2023-04-03T13:44:20.943Z,98427.69
2023-04-03T13:46:06.246Z,98417.84
2023-04-03T13:47:42.545Z,98421.06
2023-04-03T13:49:23.755Z,98425.63
2023-04-03T13:51:01.013Z,98421.28
2023-04-03T13:52:37.349Z,98417.56
2023-04-03T13:54:21.120Z,98414.81
2023-04-03T13:56:01.829Z,98420.78
2023-04-03T13:57:36.621Z,98402.09
2023-04-03T13:59:26.110Z,98418.22
2023-04-03T14:01:08.489Z,98420.69
2023-04-03T14:02:41.813Z,98419.63
2023-04-03T14:04:20.360Z,98417.53
2023-04-03T14:05:54.456Z,98414.59
2023-04-03T14:07:28.197Z,98416.09
2023-04-03T14:09:01.495Z,98421.22
2023-04-03T14:10:34.832Z,98417.34
2023-04-03T14:12:24.266Z,98422.56
2023-04-03T14:14:12.720Z,98420.84
2023-04-03T14:15:46.949Z,98415.53
2023-04-03T14:17:24.798Z,98422.38
2023-04-03T14:18:59.383Z,98426.16
2023-04-03T14:20:32.914Z,98425.59
2023-04-03T14:22:16.291Z,98427.50
2023-04-03T14:23:50.783Z,98422.47
2023-04-03T14:25:24.943Z,98426.19
2023-04-03T14:26:59.891Z,98423.91
2023-04-03T14:28:34.672Z,98420.50
2023-04-03T14:30:14.945Z,98427.69
2023-04-03T14:31:55.494Z,98433.00
2023-04-03T14:33:35.958Z,98425.53
2023-04-03T14:35:09.911Z,98426.97
2023-04-03T14:36:44.989Z,98427.31
2023-04-03T14:38:26.401Z,98434.53
2023-04-03T14:40:02.081Z,98429.78
2023-04-03T14:41:35.411Z,98438.53
2023-04-03T14:43:12.078Z,98451.72
2023-04-03T14:44:45.606Z,98439.16
2023-04-03T14:46:26.538Z,98429.78
2023-04-03T14:48:02.342Z,98429.41
2023-04-03T14:49:37.636Z,98427.78
2023-04-03T14:51:16.194Z,98427.09
2023-04-03T14:52:51.270Z,98429.38
2023-04-03T14:54:28.922Z,98439.34
2023-04-03T14:56:02.663Z,98437.50
2023-04-03T14:57:36.483Z,98429.91
2023-04-03T14:59:13.693Z,98433.16
2023-04-03T15:00:47.885Z,98425.97
2023-04-03T15:02:31.026Z,98417.06
2023-04-03T15:04:07.880Z,98433.16
2023-04-03T15:05:41.536Z,98434.84
2023-04-03T15:07:14.900Z,98442.72
2023-04-03T15:08:49.154Z,98441.81
2023-04-03T15:10:25.340Z,98446.88
2023-04-03T15:11:58.898Z,98453.56
2023-04-03T15:13:32.586Z,98449.59
2023-04-03T15:15:06.594Z,98453.78
2023-04-03T15:16:40.081Z,98445.47
2023-04-03T15:18:19.875Z,98436.38
2023-04-03T15:19:56.734Z,98442.28
2023-04-03T15:21:30.354Z,98437.94
2023-04-03T15:23:05.568Z,98453.56
2023-04-03T15:24:40.659Z,98434.97
2023-04-03T15:26:14.400Z,98434.16
2023-04-03T15:27:47.894Z,98427.09
2023-04-03T15:29:21.654Z,98423.97
2023-04-03T15:30:55.326Z,98416.38
2023-04-03T15:32:32.466Z,98434.84
2023-04-03T15:34:07.807Z,98419.63
2023-04-03T15:35:41.913Z,98429.19
2023-04-03T15:37:15.939Z,98430.91
2023-04-03T15:38:49.902Z,98426.28
2023-04-03T15:40:23.512Z,98419.91
2023-04-03T15:42:00.848Z,98421.78
2023-04-03T15:43:36.412Z,98411.56
2023-04-03T15:45:10.954Z,98419.06
2023-04-03T15:46:44.331Z,98408.53
2023-04-03T15:48:17.883Z,98408.16
2023-04-03T15:49:53.850Z,98405.41
2023-04-03T15:51:27.511Z,98405.75
2023-04-03T15:53:02.614Z,98402.03
2023-04-03T15:54:36.367Z,98397.84
2023-04-03T15:56:10.987Z,98390.59
2023-04-03T15:57:46.792Z,98391.94
2023-04-03T15:59:20.890Z,98407.72
2023-04-03T16:00:54.298Z,98398.09
2023-04-03T16:02:28.943Z,98398.53
2023-04-03T16:04:02.796Z,98396.81
2023-04-03T16:05:39.225Z,98400.41
2023-04-03T16:07:12.938Z,98402.13
2023-04-03T16:08:48.613Z,98404.97
2023-04-03T16:10:25.231Z,98402.31
2023-04-03T16:11:59.302Z,98407.63
2023-04-03T16:13:35.652Z,98413.84
2023-04-03T16:15:10.802Z,98407.63
2023-04-03T16:16:44.310Z,98415.38
2023-04-03T16:18:19.559Z,98398.81
2023-04-03T16:19:53.150Z,98405.56
2023-04-03T16:21:30.469Z,98400.41
2023-04-03T16:23:04.287Z,98400.06
2023-04-03T16:24:43.302Z,98398.09
2023-04-03T16:26:18.407Z,98388.44
2023-04-03T16:27:52.194Z,98387.56
2023-04-03T16:29:29.336Z,98387.22
2023-04-03T16:31:04.532Z,98378.47
2023-04-03T16:32:40.814Z,98379.16
2023-04-03T16:34:15.556Z,98369.38
2023-04-03T16:35:49.901Z,98368.06
2023-04-03T16:37:28.868Z,98367.28
2023-04-03T16:39:05.619Z,98366.34
2023-04-03T16:40:39.964Z,98375.25
2023-04-03T16:42:13.691Z,98367.28
2023-04-03T16:43:51.233Z,98359.50
2023-04-03T16:45:25.397Z,98361.22
2023-04-03T16:47:00.175Z,98344.91
2023-04-03T16:48:33.876Z,98350.50
2023-04-03T16:50:11.647Z,98350.44
2023-04-03T16:51:46.192Z,98351.28
2023-04-03T16:53:20.890Z,98350.44
2023-04-03T16:54:56.700Z,98339.16
2023-04-03T16:56:33.032Z,98345.41
2023-04-03T16:58:06.901Z,98341.91
2023-04-03T16:59:40.594Z,98340.22
2023-04-03T17:01:16.215Z,98323.13
2023-04-03T17:02:49.535Z,98328.44
2023-04-03T17:04:22.801Z,98333.56
2023-04-03T17:05:56.304Z,98327.66
2023-04-03T17:07:29.691Z,98324.16
2023-04-03T17:09:04.627Z,98313.66
2023-04-03T17:10:37.968Z,98314.41
2023-04-03T17:12:12.284Z,98314.78
2023-04-03T17:13:45.893Z,98314.78
2023-04-03T17:15:21.016Z,98324.00
2023-04-03T17:16:54.809Z,98314.78
2023-04-03T17:18:30.031Z,98326.91
2023-04-03T17:20:03.675Z,98319.91
2023-04-03T17:21:37.773Z,98296.00
2023-04-03T17:23:11.428Z,98302.47
2023-04-03T17:24:47.356Z,98293.75
2023-04-03T17:26:22.101Z,98293.94
2023-04-03T17:27:55.631Z,98284.47
2023-04-03T17:29:35.029Z,98293.94
2023-04-03T17:31:28.783Z,98304.72
2023-04-03T17:33:14.816Z,98301.50
2023-04-03T17:35:01.536Z,98294.31
2023-04-03T17:36:55.782Z,98293.63
2023-04-03T17:38:42.775Z,98296.34
2023-04-03T17:40:44.213Z,98303.13
2023-04-03T17:42:39.177Z,98310.25
2023-04-03T17:44:24.997Z,98304.09
2023-04-03T17:46:07.108Z,98302.38
2023-04-03T17:47:54.001Z,98300.88
2023-04-03T17:49:40.036Z,98294.97
2023-04-03T17:51:21.684Z,98293.44
2023-04-03T17:53:09.024Z,98300.38
2023-04-03T17:54:49.051Z,98299.50
2023-04-03T17:56:36.951Z,98320.72
2023-04-03T17:58:24.171Z,98309.94
2023-04-03T18:00:11.185Z,98309.75
2023-04-03T18:01:53.622Z,98310.59
2023-04-03T18:03:41.125Z,98307.22
2023-04-03T18:05:27.027Z,98304.56
2023-04-03T18:07:09.718Z,98303.59
2023-04-03T18:08:59.210Z,98299.69
2023-04-03T18:10:39.133Z,98279.53
2023-04-03T18:12:27.840Z,98278.00
2023-04-03T18:14:17.377Z,98270.31
2023-04-03T18:16:03.163Z,98280.75
2023-04-03T18:17:48.883Z,98272.63
2023-04-03T18:19:35.356Z,98262.94
2023-04-03T18:21:27.839Z,98246.88
2023-04-03T18:23:14.891Z,98241.75
2023-04-03T18:25:02.044Z,98244.31
2023-04-03T18:26:56.826Z,98236.44
2023-04-03T18:28:55.823Z,98232.72
2023-04-03T18:30:36.357Z,98223.81
2023-04-03T18:32:31.883Z,98207.75
2023-04-03T18:34:17.871Z,98204.88
2023-04-03T18:36:06.107Z,98203.97
2023-04-03T18:37:59.080Z,98210.00
2023-04-03T18:39:58.799Z,98218.91
2023-04-03T18:42:00.149Z,98223.06
2023-04-03T18:43:54.858Z,98228.19
2023-04-03T18:45:41.244Z,98237.09
2023-04-03T18:47:37.004Z,98231.81
2023-04-03T18:49:29.845Z,98222.91
2023-04-03T18:51:10.492Z,98215.91
2023-04-03T18:53:02.876Z,98220.41
2023-04-03T18:54:49.872Z,98210.59
2023-04-03T18:56:36.331Z,98205.31
2023-04-03T18:58:29.966Z,98207.19
2023-04-03T19:00:25.891Z,98204.69
2023-04-03T19:02:06.237Z,98196.75
2023-04-03T19:03:59.913Z,98198.47
2023-04-03T19:05:53.879Z,98200.34
2023-04-03T19:07:42.919Z,98211.91
2023-04-03T19:09:36.091Z,98199.41
2023-04-03T19:11:30.268Z,98200.19